WetterOnline ( http://www.wetteronline.de )

Wetter aktuell St. Peter-Ording

Aktuelles Wetter: St. Peter-Ording (11m)

6-stündlich | Neueste Meldungen
Ortszeit Temperatur Wetter
Mi, 17.10. 8:00 14.9° C bedeckt
Mi, 17.10. 2:00 15.2° C wolkig
Di, 16.10. 20:00 11.5° C leicht bewölkt
Di, 16.10. 14:00 15.9° C bedeckt
Di, 16.10. 8:00 14.3° C bewölkt
Di, 16.10. 2:00 12.3° C bedeckt
Mo, 15.10. 20:00 17.9° C wolkig
Mo, 15.10. 14:00 19.0° C wolkenlos
Ortszeit Temperatur Wetter
Mi, 17.10. 13:30 16.1° C wolkig
Mi, 17.10. 13:10 15.8° C wolkig
Mi, 17.10. 13:00 16.8° C leicht bewölkt
Mi, 17.10. 12:50 16.8° C wolkig
Mi, 17.10. 12:40 16.6° C wolkig
Mi, 17.10. 12:30 16.4° C wolkig
Mi, 17.10. 12:00 16.3° C wolkig
Mi, 17.10. 11:30 15.8° C bewölkt
Mi, 17.10. 11:00 16.4° C bedeckt
Mi, 17.10. 10:30 15.5° C wolkig
Ortszeit Relative Feuchte Sichtweite
Mi, 17.10. 8:00 85% 6 km
Mi, 17.10. 2:00 90% 5.0 km
Di, 16.10. 20:00 100% 1.7 km
Di, 16.10. 14:00 91% 4.7 km
Di, 16.10. 8:00 92% 3.4 km
Di, 16.10. 2:00 95% 4.2 km
Mo, 15.10. 20:00 69% 13 km
Mo, 15.10. 14:00 64% 9 km
Ortszeit Relative Feuchte Sichtweite
Mi, 17.10. 13:30 79% 7 km
Mi, 17.10. 13:10 79% -
Mi, 17.10. 13:00 76% 6 km
Mi, 17.10. 12:50 76% -
Mi, 17.10. 12:40 77% -
Mi, 17.10. 12:30 78% 9 km
Mi, 17.10. 12:00 77% 8 km
Mi, 17.10. 11:30 79% 8 km
Mi, 17.10. 11:00 77% 8 km
Mi, 17.10. 10:30 82% 6 km
Ortszeit Niederschlagsmenge Niederschlagsart
Mi, 17.10. 8:00 0.0 l/m2 in 12 Std. -
Mi, 17.10. 2:00 0.0 l/m2 in 6 Std. -
Di, 16.10. 20:00 0.0 l/m2 in 12 Std. -
Di, 16.10. 14:00 0.0 l/m2 in 6 Std. -
Di, 16.10. 8:00 0.0 l/m2 in 12 Std. -
Di, 16.10. 2:00 0.0 l/m2 in 6 Std. -
Mo, 15.10. 20:00 0.0 l/m2 in 12 Std. -
Mo, 15.10. 14:00 0.0 l/m2 in 6 Std. -
Ortszeit Niederschlagsmenge Niederschlagsart
Mi, 17.10. 13:30 0.0 l/m2 in 1 Std. -
Mi, 17.10. 13:10 keine Meldung -
Mi, 17.10. 13:00 0.0 l/m2 in 1 Std. -
Mi, 17.10. 12:50 keine Meldung -
Mi, 17.10. 12:40 keine Meldung -
Mi, 17.10. 12:30 0.0 l/m2 in 1 Std. -
Mi, 17.10. 12:00 0.0 l/m2 in 1 Std. -
Mi, 17.10. 11:30 0.0 l/m2 in 1 Std. -
Mi, 17.10. 11:00 0.0 l/m2 in 1 Std. -
Mi, 17.10. 10:30 0.0 l/m2 in 1 Std. -
Ortszeit Stärke Spitze Richtung
km/h Bft. km/h Grad Sektor
Mi, 17.10. 8:00 17 3 31 170° S
Mi, 17.10. 2:00 18 3 29 170° S
Di, 16.10. 20:00 7 2 22 140° SO
Di, 16.10. 14:00 15 3 24 220° SW
Di, 16.10. 8:00 13 3 20 210° SW
Di, 16.10. 2:00 9 2 15 180° S
Mo, 15.10. 20:00 13 3 28 190° S
Mo, 15.10. 14:00 17 3 28 190° S
Ortszeit Stärke Spitze Richtung
km/h Bft. km/h Grad Sektor
Mi, 17.10. 13:30 17 3 24 210° SW
Mi, 17.10. 13:10 17 3 - 210° SW
Mi, 17.10. 13:00 20 4 28 210° SW
Mi, 17.10. 12:50 20 4 - 210° SW
Mi, 17.10. 12:40 19 3 - 210° SW
Mi, 17.10. 12:30 17 3 28 200° S
Mi, 17.10. 12:00 19 3 28 190° S
Mi, 17.10. 11:30 19 3 28 180° S
Mi, 17.10. 11:00 22 4 36 180° S
Mi, 17.10. 10:30 18 3 29 170° S
Ortszeit Untergrenze Bedeckung Gattung
total tief tief mittel hoch
Mi, 17.10. 8:00 5400 m 8/8 8/8 - - -
Mi, 17.10. 2:00 3000 m 8/8 2/8 - - -
Di, 16.10. 20:00 4800 m 2/8 1/8 - - -
Di, 16.10. 14:00 330 m 8/8 8/8 - - -
Di, 16.10. 8:00 1470 m 7/8 7/8 - - -
Di, 16.10. 2:00 3600 m 8/8 8/8 - - -
Mo, 15.10. 20:00 1800 m 7/8 4/8 - - -
Mo, 15.10. 14:00 - 0/8 0/8 - - -
Ortszeit Bedeckungsgrad in Achtel und Wolkenuntergrenze
Mi, 17.10. 13:30 8(7200m) 8(8400m) 8(9000m)
Mi, 17.10. 13:10 7(7200m) 8(9000m) 8(10500m)
Mi, 17.10. 13:00 5(7500m) 8(10500m) 8(10500m)
Mi, 17.10. 12:50 5(7500m) 8(10500m) 8(10500m)
Mi, 17.10. 12:40 5(7500m) 8(10500m) 8(10500m)
Mi, 17.10. 12:30 7(7200m) 8(8700m) 8(9000m)
Mi, 17.10. 12:00 1(4500m) 7(7500m) 8(10500m)
Mi, 17.10. 11:30 5(3900m) 7(7500m) 8(10500m)
Mi, 17.10. 11:00 8(3900m) 8(7500m) 8(10500m)
Mi, 17.10. 10:30 4(3900m) 7(9000m) 7(9000m)
Ortszeit Luftdruck NN (hPa) Tendenz (hPa in 3 Std.)
Mi, 17.10. 8:00 1018 + 0,2
Mi, 17.10. 2:00 1018 - 0,4
Di, 16.10. 20:00 1019 + 0,4
Di, 16.10. 14:00 1018 + 0,5
Di, 16.10. 8:00 1016 + 1,0
Di, 16.10. 2:00 1015 + 0,7
Mo, 15.10. 20:00 1014 + 1,1
Mo, 15.10. 14:00 1012 + 0,2
Ortszeit Luftdruck NN (hPa) Tendenz (hPa in 3 Std.)
Mi, 17.10. 13:30 1019 + 0,2
Mi, 17.10. 13:10 1018 keine Meldung
Mi, 17.10. 13:00 1018 + 0,2
Mi, 17.10. 12:50 1018 keine Meldung
Mi, 17.10. 12:40 1019 keine Meldung
Mi, 17.10. 12:30 1019 + 0,5
Mi, 17.10. 12:00 1019 + 0,5
Mi, 17.10. 11:30 1019 + 0,6
Mi, 17.10. 11:00 1018 + 0,5
Mi, 17.10. 10:30 1018 + 0,7
Ortszeit Schneehöhe (cm)
Mi, 17.10. 8:00 0
Mi, 17.10. 2:00 0
Di, 16.10. 20:00 0
Di, 16.10. 14:00 0
Di, 16.10. 8:00 0
Di, 16.10. 2:00 0
Mo, 15.10. 20:00 0
Mo, 15.10. 14:00 0
Ortszeit Schneehöhe (cm)
Mi, 17.10. 13:30 -
Mi, 17.10. 13:10 0
Mi, 17.10. 13:00 0
Mi, 17.10. 12:50 -
Mi, 17.10. 12:40 -
Mi, 17.10. 12:30 0
Mi, 17.10. 12:00 0
Mi, 17.10. 11:30 0
Mi, 17.10. 11:00 0
Mi, 17.10. 10:30 0
Link zu dieser Seite / Seite empfehlen

Das Wetter in ...